createdAt,value
2017-08-16T00:00:03.511Z,84.90
2017-08-16T00:02:31.282Z,84.89
2017-08-16T00:04:58.687Z,84.89
2017-08-16T00:07:26.088Z,85.45
2017-08-16T00:09:53.859Z,85.61
2017-08-16T00:12:21.259Z,85.36
2017-08-16T00:14:48.653Z,85.57
2017-08-16T00:17:16.099Z,85.50
2017-08-16T00:19:43.495Z,85.43
2017-08-16T00:22:10.906Z,85.13
2017-08-16T00:24:38.416Z,85.35
2017-08-16T00:27:05.815Z,85.56
2017-08-16T00:29:33.216Z,85.29
2017-08-16T00:32:00.640Z,84.96
2017-08-16T00:34:28.037Z,85.50
2017-08-16T00:36:55.648Z,85.41
2017-08-16T00:39:23.196Z,85.53
2017-08-16T00:41:50.599Z,85.26
2017-08-16T00:44:17.995Z,85.26
2017-08-16T00:46:45.442Z,85.07
2017-08-16T00:49:12.840Z,85.61
2017-08-16T00:51:40.244Z,85.22
2017-08-16T00:54:07.659Z,85.40
2017-08-16T00:56:35.060Z,84.25
2017-08-16T00:59:02.460Z,84.74
2017-08-16T01:01:29.868Z,85.02
2017-08-16T01:03:57.264Z,84.94
2017-08-16T01:06:24.672Z,85.21
2017-08-16T01:08:52.228Z,85.22
2017-08-16T01:11:19.691Z,85.12
2017-08-16T01:13:47.076Z,85.32
2017-08-16T01:16:14.806Z,85.66
2017-08-16T01:18:42.206Z,85.94
2017-08-16T01:21:09.612Z,86.14
2017-08-16T01:23:37.175Z,86.64
2017-08-16T01:26:04.586Z,86.78
2017-08-16T01:28:31.993Z,86.90
2017-08-16T01:30:59.442Z,87.25
2017-08-16T01:33:26.844Z,87.49
2017-08-16T01:35:54.260Z,87.56
2017-08-16T01:38:21.778Z,87.60
2017-08-16T01:40:49.179Z,87.66
2017-08-16T01:43:16.580Z,87.71
2017-08-16T01:45:44.009Z,87.78
2017-08-16T01:48:11.411Z,87.79
2017-08-16T01:50:38.807Z,87.54
2017-08-16T01:53:06.672Z,87.64
2017-08-16T01:55:34.074Z,87.73
2017-08-16T01:58:01.469Z,87.88
2017-08-16T02:00:29.028Z,88.06
2017-08-16T02:02:56.418Z,88.14
2017-08-16T02:05:23.819Z,87.97
2017-08-16T02:07:51.379Z,87.96
2017-08-16T02:10:18.777Z,87.64
2017-08-16T02:12:46.176Z,87.78
2017-08-16T02:15:13.591Z,87.65
2017-08-16T02:17:40.994Z,87.77
2017-08-16T02:20:08.391Z,88.00
2017-08-16T02:22:36.156Z,88.06
2017-08-16T02:25:03.583Z,88.17
2017-08-16T02:27:30.984Z,88.23
2017-08-16T02:29:58.407Z,88.43
2017-08-16T02:32:25.808Z,88.54
2017-08-16T02:34:53.207Z,88.54
2017-08-16T02:37:20.648Z,88.66
2017-08-16T02:39:48.057Z,88.88
2017-08-16T02:42:15.450Z,89.08
2017-08-16T02:44:43.003Z,89.31
2017-08-16T02:47:10.396Z,89.32
2017-08-16T02:49:37.801Z,89.63
2017-08-16T02:52:05.639Z,89.60
2017-08-16T02:54:33.035Z,89.33
2017-08-16T02:57:00.447Z,89.12
2017-08-16T02:59:27.994Z,89.13
2017-08-16T03:01:55.395Z,89.10
2017-08-16T03:04:22.794Z,89.24
2017-08-16T03:06:50.502Z,89.42
2017-08-16T03:09:17.898Z,89.64
2017-08-16T03:11:45.302Z,89.70
2017-08-16T03:14:12.807Z,89.73
2017-08-16T03:16:40.203Z,89.63
2017-08-16T03:19:07.602Z,89.75
2017-08-16T03:21:35.158Z,89.76
2017-08-16T03:24:02.562Z,89.84
2017-08-16T03:26:29.960Z,89.88
2017-08-16T03:28:57.588Z,89.70
2017-08-16T03:31:24.992Z,89.57
2017-08-16T03:33:52.387Z,89.50
2017-08-16T03:36:19.943Z,89.53
2017-08-16T03:38:47.338Z,89.47
2017-08-16T03:41:14.741Z,89.33
2017-08-16T03:43:42.248Z,89.11
2017-08-16T03:46:09.647Z,89.01
2017-08-16T03:48:37.043Z,89.08
2017-08-16T03:51:04.451Z,89.11
2017-08-16T03:53:31.854Z,89.25
2017-08-16T03:55:59.260Z,89.46
2017-08-16T03:58:26.705Z,89.46
2017-08-16T04:00:54.096Z,89.32
2017-08-16T04:03:21.494Z,89.31
2017-08-16T04:05:49.270Z,89.39
2017-08-16T04:08:16.671Z,89.29
2017-08-16T04:10:44.070Z,89.23
2017-08-16T04:13:11.496Z,89.38
2017-08-16T04:15:38.898Z,89.36
2017-08-16T04:18:06.295Z,89.49
2017-08-16T04:20:34.025Z,89.54
2017-08-16T04:23:01.427Z,89.61
2017-08-16T04:25:28.822Z,90.08
2017-08-16T04:27:56.384Z,90.27
2017-08-16T04:30:23.775Z,90.39
2017-08-16T04:32:51.183Z,90.29
2017-08-16T04:35:18.625Z,90.30
2017-08-16T04:37:46.028Z,90.43
2017-08-16T04:40:13.419Z,90.49
2017-08-16T04:42:40.834Z,90.28
2017-08-16T04:45:08.259Z,90.33
2017-08-16T04:47:35.718Z,90.28
2017-08-16T04:50:03.511Z,90.37
2017-08-16T04:52:30.916Z,90.48
2017-08-16T04:54:58.310Z,90.44
2017-08-16T04:57:26.067Z,90.45
2017-08-16T04:59:53.473Z,90.44
2017-08-16T05:02:20.879Z,90.35
2017-08-16T05:04:48.666Z,90.27
2017-08-16T05:07:16.064Z,90.28
2017-08-16T05:09:43.482Z,90.46
2017-08-16T05:12:10.900Z,90.10
2017-08-16T05:14:38.358Z,90.03
2017-08-16T05:17:05.890Z,89.86
2017-08-16T05:19:33.295Z,89.46
2017-08-16T05:22:00.694Z,89.19
2017-08-16T05:24:28.098Z,89.14
2017-08-16T05:26:55.499Z,89.20
2017-08-16T05:29:23.092Z,89.15
2017-08-16T05:31:50.487Z,89.20
2017-08-16T05:34:17.899Z,89.13
2017-08-16T05:36:45.308Z,88.98
2017-08-16T05:39:12.703Z,88.83
2017-08-16T05:41:40.267Z,88.68
2017-08-16T05:44:07.666Z,88.56
2017-08-16T05:46:35.071Z,88.40
2017-08-16T05:49:02.471Z,88.32
2017-08-16T05:51:29.867Z,87.72
2017-08-16T05:53:57.854Z,87.49
2017-08-16T05:56:25.261Z,87.39
2017-08-16T05:58:52.650Z,86.04
2017-08-16T06:01:20.064Z,86.31
2017-08-16T06:03:47.472Z,86.13
2017-08-16T06:06:15.056Z,87.24
2017-08-16T06:08:42.467Z,87.30
2017-08-16T06:11:09.878Z,87.38
2017-08-16T06:13:37.290Z,86.82
2017-08-16T06:16:04.699Z,86.78
2017-08-16T06:18:32.219Z,86.63
2017-08-16T06:20:59.608Z,86.44
2017-08-16T06:23:27.007Z,86.05
2017-08-16T06:25:54.424Z,85.53
2017-08-16T06:28:21.823Z,85.67
2017-08-16T06:30:49.407Z,85.65
2017-08-16T06:33:16.795Z,85.46
2017-08-16T06:35:44.225Z,85.38
2017-08-16T06:38:11.617Z,84.86
2017-08-16T06:40:39.014Z,84.24
2017-08-16T06:43:06.419Z,83.92
2017-08-16T06:45:33.831Z,83.68
2017-08-16T06:48:01.245Z,83.46
2017-08-16T06:50:28.643Z,83.71
2017-08-16T06:52:56.587Z,83.29
2017-08-16T06:55:23.986Z,83.14
2017-08-16T06:57:51.382Z,83.07
2017-08-16T07:00:18.783Z,81.29
2017-08-16T07:02:46.179Z,81.29
2017-08-16T07:05:13.754Z,80.65
2017-08-16T07:07:41.150Z,80.22
2017-08-16T07:10:08.558Z,81.08
2017-08-16T07:12:35.967Z,80.85
2017-08-16T07:15:03.362Z,81.19
2017-08-16T07:17:30.816Z,81.75
2017-08-16T07:19:58.223Z,82.32
2017-08-16T07:22:25.624Z,82.95
2017-08-16T07:24:53.027Z,81.59
2017-08-16T07:27:20.424Z,81.76
2017-08-16T07:29:47.939Z,82.17
2017-08-16T07:32:15.339Z,81.38
2017-08-16T07:34:42.732Z,80.03
2017-08-16T07:37:10.136Z,76.25
2017-08-16T07:39:37.534Z,76.45
2017-08-16T07:42:05.128Z,77.55
2017-08-16T07:44:32.520Z,75.52
2017-08-16T07:46:59.919Z,77.58
2017-08-16T07:49:27.319Z,74.10
2017-08-16T07:51:54.719Z,74.22
2017-08-16T07:54:22.228Z,72.28
2017-08-16T07:56:49.639Z,74.01
2017-08-16T07:59:17.040Z,72.95
2017-08-16T08:01:44.451Z,72.03
2017-08-16T08:04:11.847Z,73.01
2017-08-16T08:06:39.355Z,74.61
2017-08-16T08:09:06.756Z,74.73
2017-08-16T08:11:34.158Z,74.09
2017-08-16T08:14:01.559Z,74.74
2017-08-16T08:16:28.955Z,75.74
2017-08-16T08:18:56.467Z,74.53
2017-08-16T08:21:23.864Z,75.98
2017-08-16T08:23:51.254Z,72.83
2017-08-16T08:26:18.655Z,72.41
2017-08-16T08:28:46.065Z,72.45
2017-08-16T08:31:13.500Z,72.65
2017-08-16T08:33:40.896Z,72.52
2017-08-16T08:36:08.295Z,72.48
2017-08-16T08:38:35.703Z,73.26
2017-08-16T08:41:03.104Z,72.39
2017-08-16T08:43:30.736Z,70.71
2017-08-16T08:45:58.131Z,70.06
2017-08-16T08:48:25.536Z,71.75
2017-08-16T08:50:52.938Z,68.62
2017-08-16T08:53:20.343Z,70.18
2017-08-16T08:55:47.787Z,67.68
2017-08-16T08:58:15.191Z,65.98
2017-08-16T09:00:42.595Z,66.81
2017-08-16T09:03:10.004Z,67.12
2017-08-16T09:05:37.403Z,65.48
2017-08-16T09:08:05.103Z,65.32
2017-08-16T09:10:32.501Z,65.85
2017-08-16T09:12:59.904Z,62.97
2017-08-16T09:15:27.306Z,63.88
2017-08-16T09:17:54.710Z,58.71
2017-08-16T09:20:22.267Z,60.73
2017-08-16T09:22:49.668Z,58.54
2017-08-16T09:25:17.067Z,61.05
2017-08-16T09:27:44.476Z,62.73
2017-08-16T09:30:11.867Z,61.23
2017-08-16T09:32:39.284Z,60.64
2017-08-16T09:35:06.697Z,59.89
2017-08-16T09:37:34.093Z,59.12
2017-08-16T09:40:01.501Z,58.38
2017-08-16T09:42:28.897Z,62.86
2017-08-16T09:44:56.558Z,55.81
2017-08-16T09:47:23.954Z,56.49
2017-08-16T09:49:51.356Z,60.49
2017-08-16T09:52:18.779Z,55.38
2017-08-16T09:54:46.179Z,54.30
2017-08-16T09:57:13.616Z,55.67
2017-08-16T09:59:41.030Z,54.01
2017-08-16T10:02:08.427Z,53.90
2017-08-16T10:04:35.839Z,52.68
2017-08-16T10:07:03.246Z,54.56
2017-08-16T10:09:30.687Z,55.63
2017-08-16T10:11:58.092Z,50.97
2017-08-16T10:14:25.492Z,54.26
2017-08-16T10:16:52.906Z,55.12
2017-08-16T10:19:20.308Z,54.74
2017-08-16T10:21:48.003Z,51.60
2017-08-16T10:24:15.398Z,53.14
2017-08-16T10:26:42.795Z,49.07
2017-08-16T10:29:10.206Z,51.34
2017-08-16T10:31:37.607Z,52.62
2017-08-16T10:34:05.164Z,49.99
2017-08-16T10:36:32.563Z,53.11
2017-08-16T10:38:59.962Z,46.81
2017-08-16T10:41:27.362Z,47.04
2017-08-16T10:43:54.764Z,47.86
2017-08-16T10:46:22.188Z,48.85
2017-08-16T10:48:49.583Z,49.45
2017-08-16T10:51:16.986Z,51.57
2017-08-16T10:53:44.393Z,52.10
2017-08-16T10:56:11.788Z,50.07
2017-08-16T10:58:39.339Z,52.42
2017-08-16T11:01:06.737Z,48.75
2017-08-16T11:03:34.137Z,49.76
2017-08-16T11:06:01.547Z,50.05
2017-08-16T11:08:28.944Z,49.79
2017-08-16T11:10:56.456Z,45.44
2017-08-16T11:13:23.855Z,48.40
2017-08-16T11:15:51.256Z,45.65
2017-08-16T11:18:18.664Z,48.90
2017-08-16T11:20:46.064Z,46.52
2017-08-16T11:23:13.484Z,44.31
2017-08-16T11:25:40.879Z,45.03
2017-08-16T11:28:08.283Z,43.45
2017-08-16T11:30:35.688Z,43.94
2017-08-16T11:33:03.098Z,46.57
2017-08-16T11:35:30.543Z,46.02
2017-08-16T11:37:57.947Z,45.81
2017-08-16T11:40:25.341Z,41.92
2017-08-16T11:42:52.743Z,43.75
2017-08-16T11:45:20.139Z,44.19
2017-08-16T11:47:47.697Z,40.67
2017-08-16T11:50:15.102Z,44.88
2017-08-16T11:52:42.509Z,43.06
2017-08-16T11:55:09.916Z,42.81
2017-08-16T11:57:37.312Z,44.05
2017-08-16T12:00:04.824Z,40.72
2017-08-16T12:02:32.219Z,42.11
2017-08-16T12:04:59.612Z,41.76
2017-08-16T12:07:27.021Z,42.63
2017-08-16T12:09:54.462Z,39.85
2017-08-16T12:12:21.983Z,37.59
2017-08-16T12:14:49.379Z,36.12
2017-08-16T12:17:16.779Z,38.13
2017-08-16T12:19:44.527Z,36.62
2017-08-16T12:22:11.936Z,37.85
2017-08-16T12:24:39.345Z,38.24
2017-08-16T12:27:06.784Z,35.05
2017-08-16T12:29:34.185Z,39.20
2017-08-16T12:32:01.585Z,39.76
2017-08-16T12:34:29.839Z,37.06
2017-08-16T12:36:57.239Z,37.47
2017-08-16T12:39:24.794Z,39.48
2017-08-16T12:41:52.195Z,39.82
2017-08-16T12:44:19.591Z,37.60
2017-08-16T12:46:46.999Z,41.52
2017-08-16T12:49:14.404Z,37.75
2017-08-16T12:51:42.093Z,37.88
2017-08-16T12:54:09.508Z,37.21
2017-08-16T12:56:36.906Z,39.42
2017-08-16T12:59:04.311Z,40.34
2017-08-16T13:01:31.711Z,41.56
2017-08-16T13:03:59.123Z,43.40
2017-08-16T13:06:26.536Z,41.50
2017-08-16T13:08:53.930Z,39.80
2017-08-16T13:11:21.348Z,46.10
2017-08-16T13:13:48.748Z,41.69
2017-08-16T13:16:16.305Z,41.91
2017-08-16T13:18:43.695Z,41.31
2017-08-16T13:21:11.091Z,46.04
2017-08-16T13:23:38.495Z,45.01
2017-08-16T13:26:05.900Z,43.93
2017-08-16T13:28:33.343Z,42.47
2017-08-16T13:31:00.751Z,44.44
2017-08-16T13:33:28.147Z,44.95
2017-08-16T13:35:55.547Z,45.02
2017-08-16T13:38:22.951Z,43.65
2017-08-16T13:40:50.511Z,40.74
2017-08-16T13:43:17.903Z,40.40
2017-08-16T13:45:45.305Z,41.49
2017-08-16T13:48:12.711Z,40.54
2017-08-16T13:50:40.126Z,39.66
2017-08-16T13:53:07.639Z,41.49
2017-08-16T13:55:35.037Z,41.68
2017-08-16T13:58:02.435Z,42.76
2017-08-16T14:00:29.845Z,42.29
2017-08-16T14:02:57.243Z,43.21
2017-08-16T14:05:24.687Z,43.58
2017-08-16T14:07:52.083Z,44.64
2017-08-16T14:10:19.478Z,47.72
2017-08-16T14:12:46.879Z,48.44
2017-08-16T14:15:14.277Z,45.54
2017-08-16T14:17:42.081Z,45.42
2017-08-16T14:20:09.483Z,45.57
2017-08-16T14:22:36.882Z,45.38
2017-08-16T14:25:04.291Z,43.14
2017-08-16T14:27:31.691Z,45.59
2017-08-16T14:29:59.111Z,43.81
2017-08-16T14:32:26.507Z,47.32
2017-08-16T14:34:53.921Z,49.73
2017-08-16T14:37:21.324Z,48.02
2017-08-16T14:39:48.728Z,46.70
2017-08-16T14:42:16.173Z,45.28
2017-08-16T14:44:43.580Z,45.18
2017-08-16T14:47:10.992Z,46.22
2017-08-16T14:49:38.416Z,45.91
2017-08-16T14:52:05.810Z,49.92
2017-08-16T14:54:33.529Z,52.09
2017-08-16T14:57:00.923Z,50.31
2017-08-16T14:59:28.321Z,50.88
2017-08-16T15:01:55.732Z,50.65
2017-08-16T15:04:23.123Z,51.45
2017-08-16T15:06:50.887Z,52.15
2017-08-16T15:09:18.286Z,51.30
2017-08-16T15:11:45.683Z,50.56
2017-08-16T15:14:13.099Z,48.63
2017-08-16T15:16:40.512Z,48.06
2017-08-16T15:19:08.022Z,47.53
2017-08-16T15:21:35.428Z,47.77
2017-08-16T15:24:02.831Z,48.79
2017-08-16T15:26:30.232Z,49.95
2017-08-16T15:28:57.640Z,50.73
2017-08-16T15:31:25.154Z,50.82
2017-08-16T15:33:52.543Z,50.15
2017-08-16T15:36:19.940Z,46.45
2017-08-16T15:38:47.347Z,47.26
2017-08-16T15:41:14.756Z,47.65
2017-08-16T15:43:42.303Z,47.03
2017-08-16T15:46:09.707Z,49.74
2017-08-16T15:48:37.107Z,51.25
2017-08-16T15:51:04.527Z,54.77
2017-08-16T15:53:31.979Z,52.72
2017-08-16T15:55:59.424Z,52.45
2017-08-16T15:58:26.824Z,55.43
2017-08-16T16:00:54.234Z,56.69
2017-08-16T16:03:21.643Z,56.14
2017-08-16T16:05:49.039Z,55.05
2017-08-16T16:08:16.468Z,52.57
2017-08-16T16:10:43.876Z,53.40
2017-08-16T16:13:11.278Z,55.38
2017-08-16T16:15:38.686Z,57.35
2017-08-16T16:18:06.094Z,55.79
2017-08-16T16:20:33.604Z,55.36
2017-08-16T16:23:01.017Z,55.29
2017-08-16T16:25:28.415Z,51.39
2017-08-16T16:27:55.824Z,48.72
2017-08-16T16:30:23.224Z,49.12
2017-08-16T16:32:50.632Z,50.45
2017-08-16T16:35:18.039Z,48.90
2017-08-16T16:37:45.434Z,50.71
2017-08-16T16:40:12.845Z,51.37
2017-08-16T16:42:40.239Z,52.51
2017-08-16T16:45:07.694Z,53.79
2017-08-16T16:47:35.100Z,54.60
2017-08-16T16:50:02.500Z,55.97
2017-08-16T16:52:29.903Z,56.84
2017-08-16T16:54:57.299Z,57.10
2017-08-16T16:57:24.872Z,57.04
2017-08-16T16:59:52.275Z,57.70
2017-08-16T17:02:19.681Z,58.24
2017-08-16T17:04:47.100Z,59.55
2017-08-16T17:07:14.504Z,59.98
2017-08-16T17:09:42.247Z,57.21
2017-08-16T17:12:09.642Z,57.57
2017-08-16T17:14:37.052Z,54.33
2017-08-16T17:17:04.447Z,56.84
2017-08-16T17:19:31.851Z,57.18
2017-08-16T17:21:59.291Z,58.79
2017-08-16T17:24:26.692Z,58.19
2017-08-16T17:26:54.091Z,56.55
2017-08-16T17:29:21.498Z,58.96
2017-08-16T17:31:48.919Z,57.74
2017-08-16T17:34:16.320Z,58.49
2017-08-16T17:36:43.739Z,59.25
2017-08-16T17:39:11.149Z,60.31
2017-08-16T17:41:38.548Z,61.88
2017-08-16T17:44:06.250Z,62.67
2017-08-16T17:46:33.655Z,63.23
2017-08-16T17:49:01.052Z,64.71
2017-08-16T17:51:28.823Z,64.20
2017-08-16T17:53:56.229Z,64.04
2017-08-16T17:56:23.627Z,64.23
2017-08-16T17:58:51.047Z,64.17
2017-08-16T18:01:18.442Z,64.51
2017-08-16T18:03:46.129Z,63.69
2017-08-16T18:06:13.518Z,63.15
2017-08-16T18:08:40.912Z,62.66
2017-08-16T18:11:08.326Z,62.27
2017-08-16T18:13:35.722Z,61.85
2017-08-16T18:16:03.399Z,61.71
2017-08-16T18:18:30.794Z,61.70
2017-08-16T18:20:58.195Z,61.86
2017-08-16T18:23:25.604Z,62.43
2017-08-16T18:25:53.001Z,62.62
2017-08-16T18:28:20.426Z,63.77
2017-08-16T18:30:47.830Z,63.97
2017-08-16T18:33:15.231Z,64.23
2017-08-16T18:35:42.635Z,64.64
2017-08-16T18:38:10.036Z,65.12
2017-08-16T18:40:37.557Z,64.89
2017-08-16T18:43:04.951Z,65.74
2017-08-16T18:45:32.375Z,66.04
2017-08-16T18:47:59.775Z,65.36
2017-08-16T18:50:27.177Z,64.44
2017-08-16T18:52:54.587Z,65.62
2017-08-16T18:55:21.987Z,65.54
2017-08-16T18:57:49.383Z,66.13
2017-08-16T19:00:16.790Z,67.44
2017-08-16T19:02:44.191Z,67.11
2017-08-16T19:05:11.757Z,67.38
2017-08-16T19:07:39.159Z,66.78
2017-08-16T19:10:06.567Z,66.55
2017-08-16T19:12:33.970Z,65.62
2017-08-16T19:15:01.391Z,66.23
2017-08-16T19:17:28.811Z,66.78
2017-08-16T19:19:56.264Z,66.88
2017-08-16T19:22:23.661Z,67.95
2017-08-16T19:24:51.052Z,68.68
2017-08-16T19:27:18.447Z,69.20
2017-08-16T19:29:45.894Z,68.52
2017-08-16T19:32:13.296Z,68.87
2017-08-16T19:34:40.703Z,69.02
2017-08-16T19:37:08.107Z,69.27
2017-08-16T19:39:35.507Z,69.12
2017-08-16T19:42:03.160Z,68.94
2017-08-16T19:44:30.552Z,68.82
2017-08-16T19:46:57.956Z,68.65
2017-08-16T19:49:25.360Z,68.93
2017-08-16T19:51:52.760Z,69.16
2017-08-16T19:54:20.168Z,70.05
2017-08-16T19:56:47.571Z,68.16
2017-08-16T19:59:14.977Z,66.38
2017-08-16T20:01:42.380Z,66.50
2017-08-16T20:04:09.788Z,67.11
2017-08-16T20:06:37.295Z,67.68
2017-08-16T20:09:04.691Z,68.18
2017-08-16T20:11:32.100Z,68.00
2017-08-16T20:13:59.550Z,68.35
2017-08-16T20:16:26.923Z,69.17
2017-08-16T20:18:54.357Z,69.52
2017-08-16T20:21:21.755Z,70.17
2017-08-16T20:23:49.156Z,70.80
2017-08-16T20:26:16.556Z,71.14
2017-08-16T20:28:43.968Z,71.24
2017-08-16T20:31:11.516Z,71.05
2017-08-16T20:33:38.912Z,71.35
2017-08-16T20:36:06.319Z,71.95
2017-08-16T20:38:33.730Z,72.42
2017-08-16T20:41:01.127Z,72.87
2017-08-16T20:43:28.684Z,72.84
2017-08-16T20:45:56.100Z,73.59
2017-08-16T20:48:23.499Z,73.88
2017-08-16T20:50:50.909Z,73.83
2017-08-16T20:53:18.303Z,74.11
2017-08-16T20:55:45.760Z,74.14
2017-08-16T20:58:13.159Z,73.31
2017-08-16T21:00:40.563Z,73.95
2017-08-16T21:03:07.967Z,74.23
2017-08-16T21:05:35.367Z,74.45
2017-08-16T21:08:02.924Z,74.29
2017-08-16T21:10:30.327Z,74.07
2017-08-16T21:12:57.722Z,73.98
2017-08-16T21:15:25.136Z,73.59
2017-08-16T21:17:52.543Z,73.62
2017-08-16T21:20:20.107Z,73.08
2017-08-16T21:22:47.504Z,73.46
2017-08-16T21:25:14.908Z,73.87
2017-08-16T21:27:42.315Z,74.52
2017-08-16T21:30:09.720Z,74.52
2017-08-16T21:32:37.427Z,74.46
2017-08-16T21:35:04.826Z,74.83
2017-08-16T21:37:32.235Z,75.01
2017-08-16T21:39:59.652Z,75.26
2017-08-16T21:42:27.042Z,75.66
2017-08-16T21:44:54.596Z,76.03
2017-08-16T21:47:22.001Z,76.17
2017-08-16T21:49:49.395Z,76.15
2017-08-16T21:52:16.802Z,76.24
2017-08-16T21:54:44.224Z,76.28
2017-08-16T21:57:11.784Z,76.50
2017-08-16T21:59:39.192Z,76.56
2017-08-16T22:02:06.599Z,76.63
2017-08-16T22:04:33.998Z,76.49
2017-08-16T22:07:01.396Z,76.72
2017-08-16T22:09:28.913Z,76.94
2017-08-16T22:11:56.381Z,76.89
2017-08-16T22:14:23.783Z,76.82
2017-08-16T22:16:51.193Z,76.65
2017-08-16T22:19:18.616Z,76.99
2017-08-16T22:21:46.108Z,76.11
2017-08-16T22:24:13.524Z,76.19
2017-08-16T22:26:40.919Z,76.37
2017-08-16T22:29:08.329Z,76.08
2017-08-16T22:31:35.748Z,76.64
2017-08-16T22:34:03.357Z,76.74
2017-08-16T22:36:30.755Z,77.07
2017-08-16T22:38:58.155Z,76.76
2017-08-16T22:41:25.583Z,77.32
2017-08-16T22:43:53.021Z,77.65
2017-08-16T22:46:20.467Z,77.46
2017-08-16T22:48:47.871Z,77.61
2017-08-16T22:51:15.299Z,77.88
2017-08-16T22:53:42.699Z,78.20
2017-08-16T22:56:10.100Z,78.25
2017-08-16T22:58:37.663Z,78.53
2017-08-16T23:01:05.079Z,78.65
2017-08-16T23:17:44.555Z,79.47
2017-08-16T23:20:12.123Z,79.63
2017-08-16T23:22:39.518Z,79.82
2017-08-16T23:25:06.910Z,79.97
2017-08-16T23:27:34.310Z,80.14
2017-08-16T23:30:01.707Z,80.18
2017-08-16T23:32:29.287Z,80.32
2017-08-16T23:34:56.689Z,80.51
2017-08-16T23:37:24.086Z,80.78
2017-08-16T23:39:51.487Z,80.92
2017-08-16T23:42:18.884Z,80.83
2017-08-16T23:44:46.551Z,80.87
2017-08-16T23:47:13.942Z,81.01
2017-08-16T23:49:41.343Z,81.25
2017-08-16T23:52:08.747Z,81.02
2017-08-16T23:54:36.156Z,81.13
2017-08-16T23:57:03.722Z,81.21
2017-08-16T23:59:31.123Z,81.41
